createdAt,value
2023-05-24T00:01:37.734Z,14.40
2023-05-24T00:06:39.620Z,14.30
2023-05-24T00:11:41.469Z,14.30
2023-05-24T00:16:43.447Z,14.30
2023-05-24T00:21:46.084Z,14.30
2023-05-24T00:26:48.587Z,14.10
2023-05-24T00:31:50.474Z,14.00
2023-05-24T00:36:52.358Z,13.90
2023-05-24T00:41:54.199Z,13.80
2023-05-24T00:46:56.210Z,13.70
2023-05-24T00:51:58.029Z,13.70
2023-05-24T00:56:59.910Z,13.60
2023-05-24T01:02:01.986Z,13.60
2023-05-24T01:07:21.893Z,13.60
2023-05-24T01:12:28.971Z,13.50
2023-05-24T01:17:50.464Z,13.60
2023-05-24T01:23:07.282Z,13.70
2023-05-24T01:28:11.264Z,13.60
2023-05-24T01:33:13.607Z,13.50
2023-05-24T01:38:16.159Z,13.60
2023-05-24T01:43:40.352Z,13.60
2023-05-24T01:49:21.144Z,13.60
2023-05-24T01:54:28.272Z,13.70
2023-05-24T01:59:31.947Z,13.60
2023-05-24T02:04:33.788Z,13.60
2023-05-24T02:09:36.006Z,13.50
2023-05-24T02:14:38.025Z,13.50
2023-05-24T02:19:39.952Z,13.60
2023-05-24T02:24:41.790Z,13.40
2023-05-24T02:29:43.620Z,13.30
2023-05-24T02:34:45.422Z,13.40
2023-05-24T02:39:47.278Z,13.50
2023-05-24T02:44:49.625Z,13.50
2023-05-24T02:49:51.758Z,13.60
2023-05-24T02:54:53.634Z,13.60
2023-05-24T02:59:56.540Z,13.50
2023-05-24T03:04:58.911Z,13.50
2023-05-24T03:10:00.952Z,13.50
2023-05-24T03:15:03.020Z,13.30
2023-05-24T03:20:07.074Z,13.10
2023-05-24T03:25:09.532Z,13.20
2023-05-24T03:30:11.949Z,13.10
2023-05-24T03:35:27.547Z,13.00
2023-05-24T03:40:32.397Z,12.80
2023-05-24T03:45:40.232Z,12.60
2023-05-24T03:50:42.604Z,12.60
2023-05-24T03:55:44.721Z,12.70
2023-05-24T04:00:47.630Z,12.70
2023-05-24T04:05:49.467Z,12.50
2023-05-24T04:10:51.361Z,12.70
2023-05-24T04:15:53.158Z,12.80
2023-05-24T04:20:54.943Z,12.90
2023-05-24T04:25:56.729Z,12.90
2023-05-24T04:30:59.027Z,12.80
2023-05-24T04:36:03.632Z,12.70
2023-05-24T04:41:05.857Z,12.70
2023-05-24T04:46:09.119Z,12.60
2023-05-24T04:51:11.371Z,12.70
2023-05-24T04:56:15.025Z,12.80
2023-05-24T05:01:16.866Z,12.90
2023-05-24T05:06:18.707Z,13.00
2023-05-24T05:11:20.776Z,13.10
2023-05-24T05:16:22.668Z,13.10
2023-05-24T05:21:24.663Z,13.10
2023-05-24T05:26:27.792Z,13.30
2023-05-24T05:31:29.920Z,13.50
2023-05-24T05:36:32.306Z,13.90
2023-05-24T05:41:34.069Z,14.40
2023-05-24T05:46:36.010Z,16.10
2023-05-24T05:51:38.776Z,18.40
2023-05-24T05:56:45.435Z,19.70
2023-05-24T06:01:48.909Z,20.70
2023-05-24T06:06:51.111Z,20.00
2023-05-24T06:11:52.886Z,19.50
2023-05-24T06:16:55.751Z,19.70
2023-05-24T06:21:59.395Z,19.80
2023-05-24T06:27:03.323Z,19.50
2023-05-24T06:32:07.100Z,18.60
2023-05-24T06:37:10.487Z,18.50
2023-05-24T06:42:12.306Z,17.80
2023-05-24T06:47:21.398Z,17.40
2023-05-24T06:52:23.551Z,16.90
2023-05-24T06:57:25.349Z,16.30
2023-05-24T07:02:28.590Z,16.10
2023-05-24T07:07:30.457Z,16.20
2023-05-24T07:12:32.679Z,16.30
2023-05-24T07:17:34.610Z,16.50
2023-05-24T07:22:36.934Z,16.80
2023-05-24T07:27:38.762Z,16.80
2023-05-24T07:32:40.660Z,17.00
2023-05-24T07:37:42.609Z,17.20
2023-05-24T07:42:44.791Z,17.20
2023-05-24T07:47:46.725Z,17.00
2023-05-24T07:52:48.532Z,16.50
2023-05-24T07:57:50.874Z,16.30
2023-05-24T08:02:52.677Z,15.90
2023-05-24T08:07:54.917Z,15.60
2023-05-24T08:12:56.831Z,15.50
2023-05-24T08:17:58.717Z,15.40
2023-05-24T08:23:01.540Z,15.30
2023-05-24T08:28:03.515Z,15.30
2023-05-24T08:33:05.512Z,15.40
2023-05-24T08:38:07.557Z,15.30
2023-05-24T08:43:12.137Z,15.30
2023-05-24T08:48:15.319Z,15.10
2023-05-24T08:53:18.317Z,15.20
2023-05-24T08:58:20.793Z,15.20
2023-05-24T09:03:24.086Z,15.30
2023-05-24T09:08:27.612Z,15.50
2023-05-24T09:13:31.671Z,15.60
2023-05-24T09:18:33.596Z,15.40
2023-05-24T09:23:36.467Z,15.60
2023-05-24T09:28:38.558Z,15.60
2023-05-24T09:33:40.390Z,15.80
2023-05-24T09:38:43.591Z,16.00
2023-05-24T09:43:49.780Z,16.30
2023-05-24T09:48:59.920Z,16.70
2023-05-24T09:54:02.420Z,17.30
2023-05-24T09:59:08.517Z,17.00
2023-05-24T10:04:10.646Z,16.90
2023-05-24T10:09:13.979Z,16.90
2023-05-24T10:14:18.044Z,16.40
2023-05-24T10:19:19.832Z,16.20
2023-05-24T10:24:26.333Z,16.20
2023-05-24T10:29:48.609Z,16.10
2023-05-24T10:34:51.308Z,16.00
2023-05-24T10:39:54.302Z,15.80
2023-05-24T10:44:57.555Z,15.70
2023-05-24T10:50:04.556Z,15.50
2023-05-24T10:55:09.422Z,15.60
2023-05-24T11:00:35.395Z,15.60
2023-05-24T11:05:47.862Z,15.90
2023-05-24T11:10:49.973Z,15.70
2023-05-24T11:15:51.986Z,15.40
2023-05-24T11:20:54.239Z,15.70
2023-05-24T11:25:57.167Z,15.60
2023-05-24T11:31:09.487Z,15.70
2023-05-24T11:36:11.592Z,15.70
2023-05-24T11:41:13.707Z,15.60
2023-05-24T11:46:16.401Z,15.30
2023-05-24T11:51:18.248Z,15.20
2023-05-24T11:56:21.812Z,15.00
2023-05-24T12:01:25.518Z,15.00
2023-05-24T12:06:41.712Z,15.20
2023-05-24T12:11:48.155Z,15.30
2023-05-24T12:16:50.427Z,15.40
2023-05-24T12:21:58.917Z,15.30
2023-05-24T12:27:09.129Z,15.30
2023-05-24T12:32:15.422Z,15.30
2023-05-24T12:37:18.912Z,15.40
2023-05-24T12:42:23.752Z,15.50
2023-05-24T12:47:26.017Z,15.60
2023-05-24T12:52:27.962Z,15.70
2023-05-24T12:57:31.079Z,16.00
2023-05-24T13:02:32.939Z,16.20
2023-05-24T13:07:34.809Z,16.30
2023-05-24T13:12:36.948Z,16.80
2023-05-24T13:17:39.302Z,17.30
2023-05-24T13:22:41.179Z,17.30
2023-05-24T13:27:43.061Z,17.20
2023-05-24T13:32:45.016Z,17.10
2023-05-24T13:37:47.316Z,17.00
2023-05-24T13:42:49.131Z,17.30
2023-05-24T13:47:53.379Z,17.20
2023-05-24T13:52:55.447Z,17.30
2023-05-24T13:57:57.392Z,17.30
2023-05-24T14:02:59.258Z,17.40
2023-05-24T14:08:06.333Z,17.20
2023-05-24T14:13:20.480Z,17.20
2023-05-24T14:18:30.230Z,17.60
2023-05-24T14:23:32.900Z,17.80
2023-05-24T14:28:34.757Z,17.80
2023-05-24T14:33:37.862Z,17.70
2023-05-24T14:38:39.712Z,17.40
2023-05-24T14:43:42.206Z,17.30
2023-05-24T14:48:44.106Z,17.10
2023-05-24T14:53:46.059Z,17.10
2023-05-24T14:58:47.855Z,17.10
2023-05-24T15:03:49.741Z,17.20
2023-05-24T15:08:52.199Z,17.10
2023-05-24T15:13:58.468Z,17.00
2023-05-24T15:19:00.687Z,17.20
2023-05-24T15:24:02.854Z,17.20
2023-05-24T15:29:05.537Z,17.20
2023-05-24T15:34:07.388Z,17.00
2023-05-24T15:39:09.253Z,16.90
2023-05-24T15:44:11.171Z,16.90
2023-05-24T15:49:13.174Z,16.80
2023-05-24T15:54:14.975Z,16.80
2023-05-24T15:59:16.827Z,16.90
2023-05-24T16:04:19.013Z,16.90
2023-05-24T16:09:20.830Z,16.80
2023-05-24T16:14:22.689Z,16.90
2023-05-24T16:19:24.546Z,16.80
2023-05-24T16:24:27.534Z,16.70
2023-05-24T16:29:29.875Z,16.80
2023-05-24T16:34:36.598Z,16.70
2023-05-24T16:39:46.873Z,16.80
2023-05-24T16:44:48.864Z,16.90
2023-05-24T16:49:50.700Z,16.90
2023-05-24T16:54:52.512Z,17.00
2023-05-24T16:59:54.348Z,17.00
2023-05-24T17:04:56.438Z,16.90
2023-05-24T17:09:58.283Z,16.90
2023-05-24T17:15:00.258Z,16.70
2023-05-24T17:20:02.356Z,16.60
2023-05-24T17:25:05.062Z,16.60
2023-05-24T17:30:07.539Z,16.50
2023-05-24T17:35:09.518Z,16.30
2023-05-24T17:40:11.824Z,16.20
2023-05-24T17:45:13.808Z,16.10
2023-05-24T17:50:15.580Z,16.00
2023-05-24T17:55:17.481Z,16.00
2023-05-24T18:00:20.088Z,16.00
2023-05-24T18:05:22.034Z,15.90
2023-05-24T18:10:23.820Z,15.80
2023-05-24T18:15:25.750Z,15.70
2023-05-24T18:20:27.665Z,15.80
2023-05-24T18:25:29.622Z,15.80
2023-05-24T18:30:31.413Z,15.80
2023-05-24T18:35:33.204Z,15.80
2023-05-24T18:40:36.141Z,15.70
2023-05-24T18:45:38.096Z,15.60
2023-05-24T18:50:39.943Z,15.60
2023-05-24T18:55:42.020Z,15.60
2023-05-24T19:00:43.989Z,15.60
2023-05-24T19:05:46.190Z,15.60
2023-05-24T19:10:48.744Z,15.50
2023-05-24T19:15:50.638Z,15.50
2023-05-24T19:20:52.557Z,15.40
2023-05-24T19:25:54.417Z,15.40
2023-05-24T19:30:56.364Z,15.40
2023-05-24T19:35:58.217Z,15.40
2023-05-24T19:41:01.538Z,15.20
2023-05-24T19:46:07.165Z,15.30
2023-05-24T19:51:09.319Z,15.20
2023-05-24T19:56:11.364Z,15.20
2023-05-24T20:01:13.352Z,15.20
2023-05-24T20:06:16.464Z,15.10
2023-05-24T20:11:18.342Z,15.10
2023-05-24T20:16:20.661Z,15.10
2023-05-24T20:21:22.563Z,15.00
2023-05-24T20:26:24.382Z,15.00
2023-05-24T20:31:28.621Z,15.00
2023-05-24T20:36:30.550Z,15.00
2023-05-24T20:41:32.772Z,15.00
2023-05-24T20:46:34.878Z,14.90
2023-05-24T20:51:36.956Z,14.90
2023-05-24T20:56:38.826Z,14.80
2023-05-24T21:01:40.794Z,14.80
2023-05-24T21:06:42.731Z,14.80
2023-05-24T21:11:44.538Z,14.70
2023-05-24T21:16:46.419Z,14.70
2023-05-24T21:21:48.268Z,14.70
2023-05-24T21:26:50.080Z,14.70
2023-05-24T21:31:51.920Z,14.60
2023-05-24T21:36:53.758Z,14.60
2023-05-24T21:41:55.648Z,14.60
2023-05-24T21:46:57.716Z,14.60
2023-05-24T21:51:59.783Z,14.60
2023-05-24T21:57:01.865Z,14.60
2023-05-24T22:02:03.926Z,14.50
2023-05-24T22:07:06.467Z,14.50
2023-05-24T22:12:08.368Z,14.50
2023-05-24T22:17:10.273Z,14.50
2023-05-24T22:22:12.502Z,14.50
2023-05-24T22:27:16.874Z,14.40
2023-05-24T22:32:18.793Z,14.40
2023-05-24T22:37:20.999Z,14.40
2023-05-24T22:42:22.771Z,14.50
2023-05-24T22:47:24.571Z,14.50
2023-05-24T22:52:26.671Z,14.40
2023-05-24T22:57:28.577Z,14.40
2023-05-24T23:02:30.415Z,14.30
2023-05-24T23:07:32.575Z,14.30
2023-05-24T23:12:35.949Z,14.30
2023-05-24T23:17:38.154Z,14.30
2023-05-24T23:22:40.352Z,14.40
2023-05-24T23:27:42.162Z,14.30
2023-05-24T23:32:44.052Z,14.30
2023-05-24T23:37:45.981Z,14.20
2023-05-24T23:42:48.582Z,14.20
2023-05-24T23:47:50.811Z,14.10
2023-05-24T23:52:53.272Z,14.10
2023-05-24T23:57:55.627Z,14.10
